sensor_id;sensor_type;location;lat;lon;timestamp;pressure;altitude;pressure_sealevel;temperature;humidity
55538;BME280;41383;51.418;7.286;2023-02-19T00:01:20;99967.38;;;9.82;100.00
55538;BME280;41383;51.418;7.286;2023-02-19T00:03:54;99972.88;;;9.87;100.00
55538;BME280;41383;51.418;7.286;2023-02-19T00:06:21;99955.53;;;9.93;100.00
55538;BME280;41383;51.418;7.286;2023-02-19T00:08:46;99972.25;;;9.80;100.00
55538;BME280;41383;51.418;7.286;2023-02-19T00:11:18;99968.31;;;9.71;100.00
55538;BME280;41383;51.418;7.286;2023-02-19T00:13:46;99974.91;;;9.75;100.00
55538;BME280;41383;51.418;7.286;2023-02-19T00:16:17;99974.06;;;9.97;100.00
55538;BME280;41383;51.418;7.286;2023-02-19T00:18:44;99977.84;;;9.90;100.00
55538;BME280;41383;51.418;7.286;2023-02-19T00:21:10;99963.13;;;9.91;100.00
55538;BME280;41383;51.418;7.286;2023-02-19T00:23:35;99964.31;;;9.78;100.00
55538;BME280;41383;51.418;7.286;2023-02-19T00:26:05;99968.91;;;9.73;100.00
55538;BME280;41383;51.418;7.286;2023-02-19T00:28:31;99973.78;;;9.71;100.00
55538;BME280;41383;51.418;7.286;2023-02-19T00:31:05;99971.75;;;9.83;100.00
55538;BME280;41383;51.418;7.286;2023-02-19T00:33:31;99956.41;;;9.77;100.00
55538;BME280;41383;51.418;7.286;2023-02-19T00:36:01;99956.88;;;9.68;100.00
55538;BME280;41383;51.418;7.286;2023-02-19T00:38:26;99960.22;;;9.76;100.00
55538;BME280;41383;51.418;7.286;2023-02-19T00:40:52;99961.00;;;9.99;100.00
55538;BME280;41383;51.418;7.286;2023-02-19T00:43:17;99958.19;;;9.88;100.00
55538;BME280;41383;51.418;7.286;2023-02-19T00:45:42;99950.91;;;9.94;100.00
55538;BME280;41383;51.418;7.286;2023-02-19T00:48:07;99953.56;;;9.89;100.00
55538;BME280;41383;51.418;7.286;2023-02-19T00:50:33;99947.91;;;9.96;100.00
55538;BME280;41383;51.418;7.286;2023-02-19T00:52:58;99948.78;;;10.01;100.00
55538;BME280;41383;51.418;7.286;2023-02-19T00:55:23;99947.88;;;9.90;100.00
55538;BME280;41383;51.418;7.286;2023-02-19T00:57:49;99946.19;;;9.84;100.00
55538;BME280;41383;51.418;7.286;2023-02-19T01:00:14;99936.44;;;9.66;100.00
55538;BME280;41383;51.418;7.286;2023-02-19T01:02:39;99936.50;;;9.71;100.00
55538;BME280;41383;51.418;7.286;2023-02-19T01:05:05;99933.00;;;9.76;100.00
55538;BME280;41383;51.418;7.286;2023-02-19T01:07:30;99944.59;;;9.88;100.00
55538;BME280;41383;51.418;7.286;2023-02-19T01:09:55;99944.38;;;9.95;100.00
55538;BME280;41383;51.418;7.286;2023-02-19T01:12:21;99937.38;;;9.77;100.00
55538;BME280;41383;51.418;7.286;2023-02-19T01:14:48;99944.31;;;9.90;100.00
55538;BME280;41383;51.418;7.286;2023-02-19T01:17:13;99948.94;;;9.89;100.00
55538;BME280;41383;51.418;7.286;2023-02-19T01:19:38;99933.13;;;9.86;100.00
55538;BME280;41383;51.418;7.286;2023-02-19T01:22:04;99934.44;;;9.84;100.00
55538;BME280;41383;51.418;7.286;2023-02-19T01:24:29;99932.59;;;9.89;100.00
55538;BME280;41383;51.418;7.286;2023-02-19T01:26:54;99926.97;;;9.96;100.00
55538;BME280;41383;51.418;7.286;2023-02-19T01:29:19;99936.91;;;9.85;100.00
55538;BME280;41383;51.418;7.286;2023-02-19T01:31:45;99925.72;;;9.81;100.00
55538;BME280;41383;51.418;7.286;2023-02-19T01:34:10;99932.59;;;9.89;100.00
55538;BME280;41383;51.418;7.286;2023-02-19T01:36:36;99934.44;;;9.84;100.00
55538;BME280;41383;51.418;7.286;2023-02-19T01:39:04;99933.81;;;9.76;100.00
55538;BME280;41383;51.418;7.286;2023-02-19T01:41:31;99930.09;;;9.60;100.00
55538;BME280;41383;51.418;7.286;2023-02-19T01:46:40;99925.78;;;9.64;100.00
55538;BME280;41383;51.418;7.286;2023-02-19T01:49:15;99927.00;;;9.74;100.00
55538;BME280;41383;51.418;7.286;2023-02-19T01:51:56;99930.16;;;9.65;100.00
55538;BME280;41383;51.418;7.286;2023-02-19T01:54:27;99925.78;;;9.64;100.00
55538;BME280;41383;51.418;7.286;2023-02-19T01:56:55;99918.84;;;9.51;100.00
55538;BME280;41383;51.418;7.286;2023-02-19T01:59:21;99924.28;;;9.74;100.00
55538;BME280;41383;51.418;7.286;2023-02-19T02:01:47;99923.50;;;9.78;100.00
55538;BME280;41383;51.418;7.286;2023-02-19T02:04:13;99915.84;;;9.75;100.00
55538;BME280;41383;51.418;7.286;2023-02-19T02:06:48;99922.56;;;9.67;100.00
55538;BME280;41383;51.418;7.286;2023-02-19T02:09:15;99912.38;;;9.80;100.00
55538;BME280;41383;51.418;7.286;2023-02-19T02:11:59;99919.97;;;9.78;100.00
55538;BME280;41383;51.418;7.286;2023-02-19T02:14:28;99921.03;;;9.77;100.00
55538;BME280;41383;51.418;7.286;2023-02-19T02:20:01;99921.59;;;9.79;100.00
55538;BME280;41383;51.418;7.286;2023-02-19T02:22:54;99922.69;;;9.78;100.00
55538;BME280;41383;51.418;7.286;2023-02-19T02:28:59;99932.06;;;9.42;100.00
55538;BME280;41383;51.418;7.286;2023-02-19T02:31:41;99934.66;;;9.54;100.00
55538;BME280;41383;51.418;7.286;2023-02-19T02:34:15;99936.50;;;9.71;100.00
55538;BME280;41383;51.418;7.286;2023-02-19T02:36:44;99935.03;;;9.63;100.00
55538;BME280;41383;51.418;7.286;2023-02-19T02:39:14;99933.28;;;9.52;100.00
55538;BME280;41383;51.418;7.286;2023-02-19T02:41:48;99929.59;;;9.63;100.00
55538;BME280;41383;51.418;7.286;2023-02-19T02:44:34;99940.03;;;9.72;100.00
55538;BME280;41383;51.418;7.286;2023-02-19T02:47:02;99940.50;;;9.91;100.00
55538;BME280;41383;51.418;7.286;2023-02-19T02:49:28;99938.38;;;9.71;100.00
55538;BME280;41383;51.418;7.286;2023-02-19T02:51:53;99931.66;;;9.78;100.00
55538;BME280;41383;51.418;7.286;2023-02-19T02:54:29;99934.63;;;9.77;100.00
55538;BME280;41383;51.418;7.286;2023-02-19T02:57:15;99940.09;;;9.77;100.00
55538;BME280;41383;51.418;7.286;2023-02-19T02:59:43;99932.75;;;9.55;100.00
55538;BME280;41383;51.418;7.286;2023-02-19T03:02:21;99937.00;;;9.68;100.00
55538;BME280;41383;51.418;7.286;2023-02-19T03:05:05;99936.56;;;9.54;100.00
55538;BME280;41383;51.418;7.286;2023-02-19T03:10:40;99939.66;;;9.63;100.00
55538;BME280;41383;51.418;7.286;2023-02-19T03:13:10;99933.19;;;9.69;100.00
55538;BME280;41383;51.418;7.286;2023-02-19T03:16:05;99940.47;;;9.86;100.00
55538;BME280;41383;51.418;7.286;2023-02-19T03:18:53;99941.03;;;9.88;100.00
55538;BME280;41383;51.418;7.286;2023-02-19T03:21:41;99955.22;;;9.90;100.00
55538;BME280;41383;51.418;7.286;2023-02-19T03:24:09;99951.50;;;9.74;100.00
55538;BME280;41383;51.418;7.286;2023-02-19T03:26:58;99953.66;;;9.72;100.00
55538;BME280;41383;51.418;7.286;2023-02-19T03:29:27;99947.63;;;9.69;100.00
55538;BME280;41383;51.418;7.286;2023-02-19T03:32:00;99949.22;;;9.65;100.00
55538;BME280;41383;51.418;7.286;2023-02-19T03:34:46;99953.91;;;9.70;100.00
55538;BME280;41383;51.418;7.286;2023-02-19T03:37:35;99952.13;;;9.81;100.00
55538;BME280;41383;51.418;7.286;2023-02-19T03:40:02;99962.44;;;9.56;100.00
55538;BME280;41383;51.418;7.286;2023-02-19T03:42:50;99964.03;;;9.75;100.00
55538;BME280;41383;51.418;7.286;2023-02-19T03:45:40;99965.13;;;9.74;100.00
55538;BME280;41383;51.418;7.286;2023-02-19T03:50:45;99979.22;;;9.71;100.00
55538;BME280;41383;51.418;7.286;2023-02-19T03:53:44;99982.59;;;9.78;100.00
55538;BME280;41383;51.418;7.286;2023-02-19T03:56:33;99981.88;;;9.65;100.00
55538;BME280;41383;51.418;7.286;2023-02-19T03:59:04;99987.94;;;9.50;100.00
55538;BME280;41383;51.418;7.286;2023-02-19T04:01:40;99994.47;;;9.49;100.00
55538;BME280;41383;51.418;7.286;2023-02-19T04:04:15;99992.78;;;9.65;100.00
55538;BME280;41383;51.418;7.286;2023-02-19T04:06:43;100000.63;;;9.62;100.00
55538;BME280;41383;51.418;7.286;2023-02-19T04:09:12;99996.00;;;9.62;100.00
55538;BME280;41383;51.418;7.286;2023-02-19T04:11:39;100001.06;;;9.76;100.00
55538;BME280;41383;51.418;7.286;2023-02-19T04:14:23;99996.06;;;9.67;100.00
55538;BME280;41383;51.418;7.286;2023-02-19T04:16:57;100023.59;;;9.49;99.98
55538;BME280;41383;51.418;7.286;2023-02-19T04:19:25;100023.09;;;9.52;100.00
55538;BME280;41383;51.418;7.286;2023-02-19T04:21:52;100023.78;;;9.64;100.00
55538;BME280;41383;51.418;7.286;2023-02-19T04:24:23;100018.84;;;9.61;99.56
55538;BME280;41383;51.418;7.286;2023-02-19T04:26:51;100031.91;;;9.59;100.00
55538;BME280;41383;51.418;7.286;2023-02-19T04:29:17;100017.53;;;9.64;100.00
55538;BME280;41383;51.418;7.286;2023-02-19T04:31:42;100034.03;;;9.57;99.48
55538;BME280;41383;51.418;7.286;2023-02-19T04:34:07;100032.16;;;9.57;99.68
55538;BME280;41383;51.418;7.286;2023-02-19T04:36:33;100030.75;;;9.55;99.90
55538;BME280;41383;51.418;7.286;2023-02-19T04:38:58;100041.25;;;9.68;99.93
55538;BME280;41383;51.418;7.286;2023-02-19T04:41:24;100040.56;;;9.78;99.30
55538;BME280;41383;51.418;7.286;2023-02-19T04:43:49;100033.31;;;9.84;98.76
55538;BME280;41383;51.418;7.286;2023-02-19T04:46:14;100044.06;;;9.74;98.47
55538;BME280;41383;51.418;7.286;2023-02-19T04:48:40;100040.69;;;9.66;98.09
55538;BME280;41383;51.418;7.286;2023-02-19T04:51:08;100055.34;;;9.43;98.84
55538;BME280;41383;51.418;7.286;2023-02-19T04:53:34;100058.72;;;9.50;99.71
55538;BME280;41383;51.418;7.286;2023-02-19T04:56:10;100062.41;;;9.61;99.43
55538;BME280;41383;51.418;7.286;2023-02-19T04:58:36;100059.13;;;9.59;99.03
55538;BME280;41383;51.418;7.286;2023-02-19T05:01:02;100065.03;;;9.56;99.65
55538;BME280;41383;51.418;7.286;2023-02-19T05:03:29;100073.72;;;9.53;98.89
55538;BME280;41383;51.418;7.286;2023-02-19T05:05:55;100068.34;;;9.58;99.38
55538;BME280;41383;51.418;7.286;2023-02-19T05:08:20;100074.19;;;9.67;98.92
55538;BME280;41383;51.418;7.286;2023-02-19T05:10:45;100073.47;;;9.54;98.52
55538;BME280;41383;51.418;7.286;2023-02-19T05:13:11;100081.09;;;9.35;99.65
55538;BME280;41383;51.418;7.286;2023-02-19T05:15:36;100075.31;;;9.49;99.58
55538;BME280;41383;51.418;7.286;2023-02-19T05:18:01;100078.66;;;9.56;99.25
55538;BME280;41383;51.418;7.286;2023-02-19T05:20:27;100089.53;;;9.56;98.64
55538;BME280;41383;51.418;7.286;2023-02-19T05:22:52;100096.06;;;9.55;98.78
55538;BME280;41383;51.418;7.286;2023-02-19T05:25:17;100091.78;;;9.59;98.08
55538;BME280;41383;51.418;7.286;2023-02-19T05:27:43;100084.34;;;9.54;98.43
55538;BME280;41383;51.418;7.286;2023-02-19T05:30:08;100099.38;;;9.57;98.07
55538;BME280;41383;51.418;7.286;2023-02-19T05:32:34;100100.69;;;9.72;97.86
55538;BME280;41383;51.418;7.286;2023-02-19T05:35:00;100101.34;;;9.62;97.82
55538;BME280;41383;51.418;7.286;2023-02-19T05:37:26;100102.50;;;9.66;97.48
55538;BME280;41383;51.418;7.286;2023-02-19T05:39:51;100112.41;;;9.55;97.66
55538;BME280;41383;51.418;7.286;2023-02-19T05:42:16;100113.97;;;9.51;97.74
55538;BME280;41383;51.418;7.286;2023-02-19T05:44:42;100124.44;;;9.59;97.84
55538;BME280;41383;51.418;7.286;2023-02-19T05:47:07;100118.59;;;9.67;97.91
55538;BME280;41383;51.418;7.286;2023-02-19T05:49:33;100117.84;;;9.72;97.25
55538;BME280;41383;51.418;7.286;2023-02-19T05:51:58;100123.28;;;9.72;96.98
55538;BME280;41383;51.418;7.286;2023-02-19T05:54:23;100129.53;;;9.73;97.02
55538;BME280;41383;51.418;7.286;2023-02-19T05:56:48;100126.91;;;9.78;96.59
55538;BME280;41383;51.418;7.286;2023-02-19T05:59:19;100129.91;;;9.59;96.79
55538;BME280;41383;51.418;7.286;2023-02-19T06:01:46;100124.50;;;9.64;96.65
55538;BME280;41383;51.418;7.286;2023-02-19T06:04:12;100129.63;;;9.61;97.22
55538;BME280;41383;51.418;7.286;2023-02-19T06:06:39;100128.22;;;9.58;97.30
55538;BME280;41383;51.418;7.286;2023-02-19T06:09:05;100126.25;;;9.71;97.95
55538;BME280;41383;51.418;7.286;2023-02-19T06:11:31;100133.97;;;9.79;96.76
55538;BME280;41383;51.418;7.286;2023-02-19T06:13:56;100126.25;;;9.71;96.68
55538;BME280;41383;51.418;7.286;2023-02-19T06:16:21;100138.78;;;9.72;96.84
55538;BME280;41383;51.418;7.286;2023-02-19T06:18:47;100151.75;;;9.64;96.63
55538;BME280;41383;51.418;7.286;2023-02-19T06:21:13;100146.72;;;9.56;97.28
55538;BME280;41383;51.418;7.286;2023-02-19T06:23:39;100151.03;;;9.52;97.78
55538;BME280;41383;51.418;7.286;2023-02-19T06:26:09;100146.16;;;9.54;97.67
55538;BME280;41383;51.418;7.286;2023-02-19T06:28:36;100152.00;;;9.45;97.67
55538;BME280;41383;51.418;7.286;2023-02-19T06:31:01;100153.00;;;9.39;98.32
55538;BME280;41383;51.418;7.286;2023-02-19T06:33:27;100161.91;;;9.34;99.42
55538;BME280;41383;51.418;7.286;2023-02-19T06:35:53;100162.31;;;9.09;99.82
55538;BME280;41383;51.418;7.286;2023-02-19T06:38:21;100167.50;;;9.28;100.00
55538;BME280;41383;51.418;7.286;2023-02-19T06:40:46;100177.41;;;9.51;100.00
55538;BME280;41383;51.418;7.286;2023-02-19T06:43:11;100171.16;;;9.68;99.03
55538;BME280;41383;51.418;7.286;2023-02-19T06:45:37;100169.81;;;9.71;97.71
55538;BME280;41383;51.418;7.286;2023-02-19T06:48:02;100167.66;;;9.73;97.18
55538;BME280;41383;51.418;7.286;2023-02-19T06:50:27;100185.56;;;9.68;96.72
55538;BME280;41383;51.418;7.286;2023-02-19T06:52:53;100179.72;;;9.60;97.11
55538;BME280;41383;51.418;7.286;2023-02-19T06:55:18;100185.16;;;9.60;97.67
55538;BME280;41383;51.418;7.286;2023-02-19T06:57:43;100191.34;;;9.55;97.33
55538;BME280;41383;51.418;7.286;2023-02-19T07:00:09;100200.16;;;9.62;97.51
55538;BME280;41383;51.418;7.286;2023-02-19T07:02:34;100196.53;;;9.56;96.34
55538;BME280;41383;51.418;7.286;2023-02-19T07:05:00;100205.09;;;9.48;96.71
55538;BME280;41383;51.418;7.286;2023-02-19T07:07:25;100210.34;;;9.50;97.37
55538;BME280;41383;51.418;7.286;2023-02-19T07:09:50;100213.69;;;9.57;96.85
55538;BME280;41383;51.418;7.286;2023-02-19T07:12:15;100212.38;;;9.77;97.15
55538;BME280;41383;51.418;7.286;2023-02-19T07:14:41;100227.06;;;9.76;96.08
55538;BME280;41383;51.418;7.286;2023-02-19T07:17:06;100231.53;;;9.65;96.15
55538;BME280;41383;51.418;7.286;2023-02-19T07:19:31;100228.53;;;9.66;96.34
55538;BME280;41383;51.418;7.286;2023-02-19T07:21:57;100243.41;;;9.58;96.50
55538;BME280;41383;51.418;7.286;2023-02-19T07:24:22;100239.84;;;9.58;96.76
55538;BME280;41383;51.418;7.286;2023-02-19T07:26:47;100247.53;;;9.61;96.71
55538;BME280;41383;51.418;7.286;2023-02-19T07:29:12;100244.69;;;9.56;96.47
55538;BME280;41383;51.418;7.286;2023-02-19T07:31:37;100258.25;;;9.51;96.79
55538;BME280;41383;51.418;7.286;2023-02-19T07:34:03;100246.94;;;9.59;97.04
55538;BME280;41383;51.418;7.286;2023-02-19T07:36:28;100260.72;;;9.52;96.34
55538;BME280;41383;51.418;7.286;2023-02-19T07:38:57;100271.41;;;9.42;96.95
55538;BME280;41383;51.418;7.286;2023-02-19T07:41:24;100278.28;;;9.15;97.59
55538;BME280;41383;51.418;7.286;2023-02-19T07:43:49;100283.09;;;9.25;99.18
55538;BME280;41383;51.418;7.286;2023-02-19T07:46:15;100275.16;;;9.23;98.76
55538;BME280;41383;51.418;7.286;2023-02-19T07:48:55;100283.31;;;9.36;98.45
55538;BME280;41383;51.418;7.286;2023-02-19T07:51:27;100290.72;;;9.40;98.72
55538;BME280;41383;51.418;7.286;2023-02-19T07:53:52;100291.88;;;9.44;98.40
55538;BME280;41383;51.418;7.286;2023-02-19T07:56:18;100289.16;;;9.44;97.73
55538;BME280;41383;51.418;7.286;2023-02-19T07:58:44;100282.00;;;9.55;97.67
55538;BME280;41383;51.418;7.286;2023-02-19T08:01:20;100289.19;;;9.62;97.14
55538;BME280;41383;51.418;7.286;2023-02-19T08:04:04;100296.69;;;9.54;97.08
55538;BME280;41383;51.418;7.286;2023-02-19T08:06:30;100299.56;;;9.48;96.62
55538;BME280;41383;51.418;7.286;2023-02-19T08:08:55;100308.25;;;9.32;97.81
55538;BME280;41383;51.418;7.286;2023-02-19T08:11:22;100307.53;;;9.37;98.12
55538;BME280;41383;51.418;7.286;2023-02-19T08:14:08;100324.41;;;9.51;97.47
55538;BME280;41383;51.418;7.286;2023-02-19T08:16:33;100327.53;;;9.60;97.53
55538;BME280;41383;51.418;7.286;2023-02-19T08:18:59;100325.38;;;9.45;96.27
55538;BME280;41383;51.418;7.286;2023-02-19T08:21:24;100332.41;;;9.29;97.16
55538;BME280;41383;51.418;7.286;2023-02-19T08:23:52;100327.25;;;9.44;97.46
55538;BME280;41383;51.418;7.286;2023-02-19T08:26:17;100328.88;;;9.57;96.38
55538;BME280;41383;51.418;7.286;2023-02-19T08:28:43;100333.16;;;9.53;96.15
55538;BME280;41383;51.418;7.286;2023-02-19T08:31:12;100333.75;;;9.73;95.98
55538;BME280;41383;51.418;7.286;2023-02-19T08:33:38;100332.97;;;9.60;95.43
55538;BME280;41383;51.418;7.286;2023-02-19T08:36:05;100335.13;;;9.58;95.85
55538;BME280;41383;51.418;7.286;2023-02-19T08:38:33;100330.84;;;9.62;95.70
55538;BME280;41383;51.418;7.286;2023-02-19T08:41:20;100331.84;;;9.73;95.41
55538;BME280;41383;51.418;7.286;2023-02-19T08:43:45;100338.72;;;9.76;95.02
55538;BME280;41383;51.418;7.286;2023-02-19T08:46:11;100343.09;;;9.77;94.54
55538;BME280;41383;51.418;7.286;2023-02-19T08:48:38;100350.19;;;9.78;95.20
55538;BME280;41383;51.418;7.286;2023-02-19T08:51:06;100346.41;;;9.96;94.79
55538;BME280;41383;51.418;7.286;2023-02-19T08:53:33;100347.16;;;9.91;94.50
55538;BME280;41383;51.418;7.286;2023-02-19T08:55:58;100347.53;;;9.83;94.83
55538;BME280;41383;51.418;7.286;2023-02-19T08:58:28;100341.25;;;9.65;94.68
55538;BME280;41383;51.418;7.286;2023-02-19T09:00:53;100350.00;;;9.67;94.58
55538;BME280;41383;51.418;7.286;2023-02-19T09:03:18;100346.69;;;9.65;94.96
55538;BME280;41383;51.418;7.286;2023-02-19T09:05:43;100345.72;;;9.72;94.27
55538;BME280;41383;51.418;7.286;2023-02-19T09:08:11;100360.91;;;9.85;94.51
55538;BME280;41383;51.418;7.286;2023-02-19T09:10:36;100348.50;;;9.60;94.07
55538;BME280;41383;51.418;7.286;2023-02-19T09:13:02;100366.53;;;9.78;94.32
55538;BME280;41383;51.418;7.286;2023-02-19T09:15:27;100361.22;;;9.71;94.05
55538;BME280;41383;51.418;7.286;2023-02-19T09:17:53;100374.19;;;9.81;93.87
55538;BME280;41383;51.418;7.286;2023-02-19T09:20:18;100368.69;;;9.76;94.24
55538;BME280;41383;51.418;7.286;2023-02-19T09:22:44;100371.97;;;9.78;94.16
55538;BME280;41383;51.418;7.286;2023-02-19T09:25:10;100379.75;;;9.86;94.64
55538;BME280;41383;51.418;7.286;2023-02-19T09:27:35;100384.69;;;9.89;94.44
55538;BME280;41383;51.418;7.286;2023-02-19T09:30:00;100392.25;;;9.70;93.83
55538;BME280;41383;51.418;7.286;2023-02-19T09:32:29;100395.22;;;9.68;94.17
55538;BME280;41383;51.418;7.286;2023-02-19T09:34:55;100402.78;;;9.66;94.88
55538;BME280;41383;51.418;7.286;2023-02-19T09:37:24;100407.97;;;9.80;94.67
55538;BME280;41383;51.418;7.286;2023-02-19T09:39:50;100403.63;;;9.96;93.68
55538;BME280;41383;51.418;7.286;2023-02-19T09:42:21;100400.50;;;9.75;94.03
55538;BME280;41383;51.418;7.286;2023-02-19T09:44:51;100404.94;;;9.64;94.33
55538;BME280;41383;51.418;7.286;2023-02-19T09:49:44;100412.19;;;9.88;94.58
55538;BME280;41383;51.418;7.286;2023-02-19T09:54:51;100430.09;;;9.84;94.29
55538;BME280;41383;51.418;7.286;2023-02-19T09:57:22;100426.13;;;10.21;94.19
55538;BME280;41383;51.418;7.286;2023-02-19T10:00:19;100434.53;;;10.36;92.80
55538;BME280;41383;51.418;7.286;2023-02-19T10:02:37;100443.88;;;10.41;92.49
55538;BME280;41383;51.418;7.286;2023-02-19T10:05:12;100437.50;;;10.18;92.45
55538;BME280;41383;51.418;7.286;2023-02-19T10:07:41;100441.78;;;10.13;91.95
55538;BME280;41383;51.418;7.286;2023-02-19T10:12:44;100455.25;;;10.20;91.60
55538;BME280;41383;51.418;7.286;2023-02-19T10:15:26;100471.53;;;10.32;91.86
55538;BME280;41383;51.418;7.286;2023-02-19T10:17:53;100479.03;;;10.54;91.83
55538;BME280;41383;51.418;7.286;2023-02-19T10:20:20;100487.50;;;10.41;91.21
55538;BME280;41383;51.418;7.286;2023-02-19T10:23:11;100476.84;;;10.39;91.94
55538;BME280;41383;51.418;7.286;2023-02-19T10:25:36;100473.19;;;10.33;91.75
55538;BME280;41383;51.418;7.286;2023-02-19T10:28:05;100481.69;;;10.49;92.32
55538;BME280;41383;51.418;7.286;2023-02-19T10:30:34;100487.97;;;10.49;91.40
55538;BME280;41383;51.418;7.286;2023-02-19T10:33:13;100499.91;;;10.48;90.64
55538;BME280;41383;51.418;7.286;2023-02-19T10:35:52;100511.47;;;10.56;90.75
55538;BME280;41383;51.418;7.286;2023-02-19T10:38:21;100513.00;;;10.64;90.88
55538;BME280;41383;51.418;7.286;2023-02-19T10:40:51;100514.56;;;10.77;90.41
55538;BME280;41383;51.418;7.286;2023-02-19T10:43:25;100506.72;;;10.63;90.68
55538;BME280;41383;51.418;7.286;2023-02-19T10:46:00;100506.03;;;10.56;90.13
55538;BME280;41383;51.418;7.286;2023-02-19T10:48:32;100510.69;;;10.55;89.94
55538;BME280;41383;51.418;7.286;2023-02-19T10:51:01;100507.78;;;10.62;89.96
55538;BME280;41383;51.418;7.286;2023-02-19T10:53:42;100517.34;;;10.47;89.00
55538;BME280;41383;51.418;7.286;2023-02-19T10:56:12;100517.78;;;10.27;88.47
55538;BME280;41383;51.418;7.286;2023-02-19T10:58:37;100512.31;;;10.56;89.72
55538;BME280;41383;51.418;7.286;2023-02-19T11:01:24;100538.03;;;10.60;88.34
55538;BME280;41383;51.418;7.286;2023-02-19T11:04:16;100535.81;;;10.57;87.65
55538;BME280;41383;51.418;7.286;2023-02-19T11:06:42;100534.06;;;10.51;88.28
55538;BME280;41383;51.418;7.286;2023-02-19T11:09:38;100530.16;;;10.64;87.88
55538;BME280;41383;51.418;7.286;2023-02-19T11:12:04;100531.66;;;10.72;87.54
55538;BME280;41383;51.418;7.286;2023-02-19T11:14:31;100524.81;;;10.69;87.44
55538;BME280;41383;51.418;7.286;2023-02-19T11:16:59;100529.09;;;10.82;87.06
55538;BME280;41383;51.418;7.286;2023-02-19T11:19:41;100534.81;;;10.64;86.56
55538;BME280;41383;51.418;7.286;2023-02-19T11:22:31;100540.75;;;10.60;87.64
55538;BME280;41383;51.418;7.286;2023-02-19T11:25:04;100541.44;;;10.68;87.62
55538;BME280;41383;51.418;7.286;2023-02-19T11:27:31;100540.28;;;10.81;87.81
55538;BME280;41383;51.418;7.286;2023-02-19T11:33:32;100519.94;;;10.89;86.54
55538;BME280;41383;51.418;7.286;2023-02-19T11:36:16;100526.38;;;10.82;86.34
55538;BME280;41383;51.418;7.286;2023-02-19T11:38:44;100540.50;;;10.96;87.15
55538;BME280;41383;51.418;7.286;2023-02-19T11:41:19;100545.25;;;11.18;86.28
55538;BME280;41383;51.418;7.286;2023-02-19T11:46:48;100522.56;;;11.18;85.99
55538;BME280;41383;51.418;7.286;2023-02-19T11:52:40;100514.63;;;10.99;86.22
55538;BME280;41383;51.418;7.286;2023-02-19T11:58:07;100505.78;;;11.09;85.10
55538;BME280;41383;51.418;7.286;2023-02-19T12:00:58;100507.19;;;11.12;85.10
55538;BME280;41383;51.418;7.286;2023-02-19T12:06:27;100509.13;;;10.94;84.79
55538;BME280;41383;51.418;7.286;2023-02-19T12:16:54;100513.81;;;10.98;85.33
55538;BME280;41383;51.418;7.286;2023-02-19T12:19:53;100519.13;;;10.71;85.15
55538;BME280;41383;51.418;7.286;2023-02-19T12:22:31;100534.31;;;10.67;85.22
55538;BME280;41383;51.418;7.286;2023-02-19T12:25:11;100541.19;;;10.69;85.69
55538;BME280;41383;51.418;7.286;2023-02-19T12:28:17;100543.34;;;10.67;86.02
55538;BME280;41383;51.418;7.286;2023-02-19T12:31:23;100532.16;;;10.69;84.94
55538;BME280;41383;51.418;7.286;2023-02-19T12:45:29;100532.59;;;10.95;84.44
55538;BME280;41383;51.418;7.286;2023-02-19T12:48:00;100535.00;;;10.91;83.15
55538;BME280;41383;51.418;7.286;2023-02-19T12:50:28;100541.84;;;10.94;83.85
55538;BME280;41383;51.418;7.286;2023-02-19T12:53:00;100539.72;;;10.96;84.63
55538;BME280;41383;51.418;7.286;2023-02-19T12:55:34;100540.28;;;10.98;84.79
55538;BME280;41383;51.418;7.286;2023-02-19T12:58:04;100545.56;;;10.88;83.63
55538;BME280;41383;51.418;7.286;2023-02-19T13:00:37;100544.81;;;10.75;84.08
55538;BME280;41383;51.418;7.286;2023-02-19T13:06:06;100549.25;;;10.64;84.64
55538;BME280;41383;51.418;7.286;2023-02-19T13:14:26;100574.44;;;9.72;88.20
55538;BME280;41383;51.418;7.286;2023-02-19T13:16:57;100577.72;;;9.98;87.75
55538;BME280;41383;51.418;7.286;2023-02-19T13:19:24;100577.69;;;10.10;87.40
55538;BME280;41383;51.418;7.286;2023-02-19T13:21:56;100564.38;;;10.13;85.83
55538;BME280;41383;51.418;7.286;2023-02-19T13:24:43;100575.44;;;10.07;86.42
55538;BME280;41383;51.418;7.286;2023-02-19T13:35:25;100568.22;;;10.71;83.67
55538;BME280;41383;51.418;7.286;2023-02-19T13:37:59;100575.47;;;10.82;83.09
55538;BME280;41383;51.418;7.286;2023-02-19T13:40:36;100579.28;;;10.81;82.36
55538;BME280;41383;51.418;7.286;2023-02-19T13:43:05;100585.34;;;10.83;82.35
55538;BME280;41383;51.418;7.286;2023-02-19T13:45:35;100585.25;;;10.95;82.16
55538;BME280;41383;51.418;7.286;2023-02-19T13:50:49;100585.72;;;10.75;80.59
55538;BME280;41383;51.418;7.286;2023-02-19T13:56:34;100586.59;;;10.34;80.94
55538;BME280;41383;51.418;7.286;2023-02-19T13:59:22;100590.38;;;10.33;80.73
55538;BME280;41383;51.418;7.286;2023-02-19T14:04:43;100612.59;;;10.25;80.71
55538;BME280;41383;51.418;7.286;2023-02-19T14:14:47;100637.16;;;10.01;82.28
55538;BME280;41383;51.418;7.286;2023-02-19T14:30:31;100656.25;;;9.89;84.93
55538;BME280;41383;51.418;7.286;2023-02-19T14:32:57;100650.09;;;9.93;84.36
55538;BME280;41383;51.418;7.286;2023-02-19T14:35:29;100657.31;;;9.88;84.62
55538;BME280;41383;51.418;7.286;2023-02-19T14:37:57;100658.25;;;9.81;86.11
55538;BME280;41383;51.418;7.286;2023-02-19T14:40:28;100663.34;;;9.90;86.30
55538;BME280;41383;51.418;7.286;2023-02-19T14:42:56;100659.91;;;9.71;86.97
55538;BME280;41383;51.418;7.286;2023-02-19T14:45:22;100652.34;;;9.61;87.68
55538;BME280;41383;51.418;7.286;2023-02-19T14:47:48;100654.13;;;9.67;87.66
55538;BME280;41383;51.418;7.286;2023-02-19T14:50:29;100653.03;;;9.56;87.46
55538;BME280;41383;51.418;7.286;2023-02-19T14:52:59;100664.75;;;9.80;87.24
55538;BME280;41383;51.418;7.286;2023-02-19T14:55:30;100657.91;;;9.78;86.86
55538;BME280;41383;51.418;7.286;2023-02-19T14:57:59;100653.88;;;9.80;86.68